sensor_id;sensor_type;location;lat;lon;timestamp;temperature;humidity
306;DHT22;137;48.578;9.180;2022-09-30T00:01:17;8.70;98.20
306;DHT22;137;48.578;9.180;2022-09-30T00:03:45;8.70;98.20
306;DHT22;137;48.578;9.180;2022-09-30T00:06:12;8.70;98.20
306;DHT22;137;48.578;9.180;2022-09-30T00:08:39;8.70;98.20
306;DHT22;137;48.578;9.180;2022-09-30T00:11:09;8.70;98.20
306;DHT22;137;48.578;9.180;2022-09-30T00:13:39;8.70;98.20
306;DHT22;137;48.578;9.180;2022-09-30T00:16:07;8.70;98.20
306;DHT22;137;48.578;9.180;2022-09-30T00:18:34;8.70;98.20
306;DHT22;137;48.578;9.180;2022-09-30T00:21:04;8.70;98.20
306;DHT22;137;48.578;9.180;2022-09-30T00:23:31;8.70;98.20
306;DHT22;137;48.578;9.180;2022-09-30T00:25:59;8.70;98.20
306;DHT22;137;48.578;9.180;2022-09-30T00:28:26;8.70;98.20
306;DHT22;137;48.578;9.180;2022-09-30T00:30:57;8.70;98.20
306;DHT22;137;48.578;9.180;2022-09-30T00:33:24;8.60;98.20
306;DHT22;137;48.578;9.180;2022-09-30T00:35:50;8.60;98.20
306;DHT22;137;48.578;9.180;2022-09-30T00:38:19;8.60;98.20
306;DHT22;137;48.578;9.180;2022-09-30T00:40:45;8.50;98.20
306;DHT22;137;48.578;9.180;2022-09-30T00:43:16;8.50;98.20
306;DHT22;137;48.578;9.180;2022-09-30T00:45:48;8.50;98.20
306;DHT22;137;48.578;9.180;2022-09-30T00:48:18;8.60;98.20
306;DHT22;137;48.578;9.180;2022-09-30T00:50:48;8.70;98.20
306;DHT22;137;48.578;9.180;2022-09-30T00:53:24;8.80;98.20
306;DHT22;137;48.578;9.180;2022-09-30T00:55:56;8.80;98.20
306;DHT22;137;48.578;9.180;2022-09-30T00:58:27;8.80;98.20
306;DHT22;137;48.578;9.180;2022-09-30T01:00:55;8.70;98.20
306;DHT22;137;48.578;9.180;2022-09-30T01:03:22;8.80;98.20
306;DHT22;137;48.578;9.180;2022-09-30T01:05:50;8.90;98.20
306;DHT22;137;48.578;9.180;2022-09-30T01:08:18;8.80;98.20
306;DHT22;137;48.578;9.180;2022-09-30T01:10:47;8.90;98.20
306;DHT22;137;48.578;9.180;2022-09-30T01:13:16;9.00;98.20
306;DHT22;137;48.578;9.180;2022-09-30T01:15:58;9.00;98.20
306;DHT22;137;48.578;9.180;2022-09-30T01:18:38;8.90;98.20
306;DHT22;137;48.578;9.180;2022-09-30T01:24:33;8.90;98.20
306;DHT22;137;48.578;9.180;2022-09-30T01:27:15;8.90;98.20
306;DHT22;137;48.578;9.180;2022-09-30T01:30:13;8.90;98.20
306;DHT22;137;48.578;9.180;2022-09-30T01:33:06;8.80;98.20
306;DHT22;137;48.578;9.180;2022-09-30T01:35:44;8.80;98.20
306;DHT22;137;48.578;9.180;2022-09-30T01:38:23;8.80;98.20
306;DHT22;137;48.578;9.180;2022-09-30T01:41:00;8.80;98.20
306;DHT22;137;48.578;9.180;2022-09-30T01:43:47;8.80;98.20
306;DHT22;137;48.578;9.180;2022-09-30T01:46:22;8.80;98.20
306;DHT22;137;48.578;9.180;2022-09-30T01:48:57;8.80;98.20
306;DHT22;137;48.578;9.180;2022-09-30T01:51:31;8.80;98.20
306;DHT22;137;48.578;9.180;2022-09-30T01:54:04;8.90;98.20
306;DHT22;137;48.578;9.180;2022-09-30T01:56:37;8.90;98.20
306;DHT22;137;48.578;9.180;2022-09-30T01:59:09;8.80;98.20
306;DHT22;137;48.578;9.180;2022-09-30T02:01:42;8.80;98.20
306;DHT22;137;48.578;9.180;2022-09-30T02:04:16;8.80;98.20
306;DHT22;137;48.578;9.180;2022-09-30T02:06:47;8.80;98.20
306;DHT22;137;48.578;9.180;2022-09-30T02:09:19;8.70;98.20
306;DHT22;137;48.578;9.180;2022-09-30T02:11:47;8.60;98.20
306;DHT22;137;48.578;9.180;2022-09-30T02:14:18;8.60;98.20
306;DHT22;137;48.578;9.180;2022-09-30T02:16:49;8.60;98.20
306;DHT22;137;48.578;9.180;2022-09-30T02:19:21;8.60;98.20
306;DHT22;137;48.578;9.180;2022-09-30T02:21:56;8.60;98.20
306;DHT22;137;48.578;9.180;2022-09-30T02:24:25;8.70;98.20
306;DHT22;137;48.578;9.180;2022-09-30T02:26:55;8.70;98.20
306;DHT22;137;48.578;9.180;2022-09-30T02:29:27;8.70;98.20
306;DHT22;137;48.578;9.180;2022-09-30T02:31:59;8.70;98.20
306;DHT22;137;48.578;9.180;2022-09-30T02:34:31;8.70;98.20
306;DHT22;137;48.578;9.180;2022-09-30T02:37:04;8.70;98.20
306;DHT22;137;48.578;9.180;2022-09-30T02:39:39;8.70;98.20
306;DHT22;137;48.578;9.180;2022-09-30T02:42:11;8.80;98.20
306;DHT22;137;48.578;9.180;2022-09-30T02:44:39;8.80;98.20
306;DHT22;137;48.578;9.180;2022-09-30T02:47:11;8.70;98.20
306;DHT22;137;48.578;9.180;2022-09-30T02:49:45;8.60;98.20
306;DHT22;137;48.578;9.180;2022-09-30T02:52:22;8.60;98.20
306;DHT22;137;48.578;9.180;2022-09-30T02:54:58;8.60;98.20
306;DHT22;137;48.578;9.180;2022-09-30T02:57:34;8.60;98.20
306;DHT22;137;48.578;9.180;2022-09-30T03:00:05;8.60;98.20
306;DHT22;137;48.578;9.180;2022-09-30T03:02:32;8.80;98.20
306;DHT22;137;48.578;9.180;2022-09-30T03:05:02;8.80;98.20
306;DHT22;137;48.578;9.180;2022-09-30T03:07:29;8.80;98.20
306;DHT22;137;48.578;9.180;2022-09-30T03:09:56;8.80;98.20
306;DHT22;137;48.578;9.180;2022-09-30T03:12:33;8.70;98.20
306;DHT22;137;48.578;9.180;2022-09-30T03:15:21;8.60;98.20
306;DHT22;137;48.578;9.180;2022-09-30T03:18:11;8.70;98.20
306;DHT22;137;48.578;9.180;2022-09-30T03:20:46;8.70;98.20
306;DHT22;137;48.578;9.180;2022-09-30T03:23:38;8.80;98.20
306;DHT22;137;48.578;9.180;2022-09-30T03:26:14;8.80;98.20
306;DHT22;137;48.578;9.180;2022-09-30T03:28:51;8.90;98.20
306;DHT22;137;48.578;9.180;2022-09-30T03:31:28;8.90;98.20
306;DHT22;137;48.578;9.180;2022-09-30T03:34:00;8.90;98.20
306;DHT22;137;48.578;9.180;2022-09-30T03:36:36;8.90;98.20
306;DHT22;137;48.578;9.180;2022-09-30T03:39:10;8.90;98.20
306;DHT22;137;48.578;9.180;2022-09-30T03:41:45;9.00;98.20
306;DHT22;137;48.578;9.180;2022-09-30T03:44:16;8.90;98.20
306;DHT22;137;48.578;9.180;2022-09-30T03:46:48;8.80;98.20
306;DHT22;137;48.578;9.180;2022-09-30T03:49:20;8.80;98.20
306;DHT22;137;48.578;9.180;2022-09-30T03:51:49;8.70;98.20
306;DHT22;137;48.578;9.180;2022-09-30T03:54:16;8.70;98.20
306;DHT22;137;48.578;9.180;2022-09-30T03:56:42;8.70;98.20
306;DHT22;137;48.578;9.180;2022-09-30T03:59:11;8.60;98.20
306;DHT22;137;48.578;9.180;2022-09-30T04:01:38;8.50;98.20
306;DHT22;137;48.578;9.180;2022-09-30T04:04:05;8.60;98.20
306;DHT22;137;48.578;9.180;2022-09-30T04:06:32;8.60;98.20
306;DHT22;137;48.578;9.180;2022-09-30T04:09:00;8.70;98.20
306;DHT22;137;48.578;9.180;2022-09-30T04:11:27;8.70;98.20
306;DHT22;137;48.578;9.180;2022-09-30T04:13:54;8.70;98.20
306;DHT22;137;48.578;9.180;2022-09-30T04:16:21;8.80;98.20
306;DHT22;137;48.578;9.180;2022-09-30T04:18:48;8.80;98.20
306;DHT22;137;48.578;9.180;2022-09-30T04:21:15;8.80;98.20
306;DHT22;137;48.578;9.180;2022-09-30T04:23:42;8.80;98.20
306;DHT22;137;48.578;9.180;2022-09-30T04:26:12;8.90;98.20
306;DHT22;137;48.578;9.180;2022-09-30T04:28:39;8.90;98.20
306;DHT22;137;48.578;9.180;2022-09-30T04:31:06;8.80;98.20
306;DHT22;137;48.578;9.180;2022-09-30T04:33:33;8.70;98.20
306;DHT22;137;48.578;9.180;2022-09-30T04:36:00;8.70;98.20
306;DHT22;137;48.578;9.180;2022-09-30T04:38:27;8.70;98.20
306;DHT22;137;48.578;9.180;2022-09-30T04:40:56;8.70;98.20
306;DHT22;137;48.578;9.180;2022-09-30T04:43:24;8.70;98.20
306;DHT22;137;48.578;9.180;2022-09-30T04:45:52;8.70;98.20
306;DHT22;137;48.578;9.180;2022-09-30T04:48:19;8.70;98.20
306;DHT22;137;48.578;9.180;2022-09-30T04:50:47;8.80;98.20
306;DHT22;137;48.578;9.180;2022-09-30T04:53:15;8.80;98.20
306;DHT22;137;48.578;9.180;2022-09-30T04:55:43;8.80;98.20
306;DHT22;137;48.578;9.180;2022-09-30T04:58:10;8.90;98.20
306;DHT22;137;48.578;9.180;2022-09-30T05:00:39;8.90;98.20
306;DHT22;137;48.578;9.180;2022-09-30T05:03:06;9.00;98.20
306;DHT22;137;48.578;9.180;2022-09-30T05:05:33;9.10;98.20
306;DHT22;137;48.578;9.180;2022-09-30T05:08:00;9.10;98.20
306;DHT22;137;48.578;9.180;2022-09-30T05:10:28;9.20;98.20
306;DHT22;137;48.578;9.180;2022-09-30T05:12:55;9.20;98.20
306;DHT22;137;48.578;9.180;2022-09-30T05:15:23;9.30;98.20
306;DHT22;137;48.578;9.180;2022-09-30T05:17:52;9.20;98.20
306;DHT22;137;48.578;9.180;2022-09-30T05:20:19;9.20;98.20
306;DHT22;137;48.578;9.180;2022-09-30T05:22:46;9.30;98.20
306;DHT22;137;48.578;9.180;2022-09-30T05:25:13;9.30;98.20
306;DHT22;137;48.578;9.180;2022-09-30T05:27:40;9.30;98.20
306;DHT22;137;48.578;9.180;2022-09-30T05:30:07;9.30;98.20
306;DHT22;137;48.578;9.180;2022-09-30T05:32:34;9.30;98.20
306;DHT22;137;48.578;9.180;2022-09-30T05:35:03;9.30;98.20
306;DHT22;137;48.578;9.180;2022-09-30T05:37:30;9.30;98.20
306;DHT22;137;48.578;9.180;2022-09-30T05:39:57;9.30;98.20
306;DHT22;137;48.578;9.180;2022-09-30T05:42:24;9.30;98.20
306;DHT22;137;48.578;9.180;2022-09-30T05:44:50;9.40;98.20
306;DHT22;137;48.578;9.180;2022-09-30T05:47:17;9.40;98.20
306;DHT22;137;48.578;9.180;2022-09-30T05:49:44;9.50;98.20
306;DHT22;137;48.578;9.180;2022-09-30T05:52:13;9.60;98.20
306;DHT22;137;48.578;9.180;2022-09-30T05:54:40;9.60;98.20
306;DHT22;137;48.578;9.180;2022-09-30T05:57:07;9.80;98.20
306;DHT22;137;48.578;9.180;2022-09-30T05:59:33;9.90;98.20
306;DHT22;137;48.578;9.180;2022-09-30T06:02:02;10.00;98.20
306;DHT22;137;48.578;9.180;2022-09-30T06:04:29;10.10;98.20
306;DHT22;137;48.578;9.180;2022-09-30T06:06:55;10.00;98.20
306;DHT22;137;48.578;9.180;2022-09-30T06:09:24;10.20;98.20
306;DHT22;137;48.578;9.180;2022-09-30T06:11:50;10.30;98.20
306;DHT22;137;48.578;9.180;2022-09-30T06:14:23;10.40;98.20
306;DHT22;137;48.578;9.180;2022-09-30T06:16:50;10.50;98.20
306;DHT22;137;48.578;9.180;2022-09-30T06:19:17;10.50;98.20
306;DHT22;137;48.578;9.180;2022-09-30T06:21:44;10.50;98.20
306;DHT22;137;48.578;9.180;2022-09-30T06:24:10;10.70;98.20
306;DHT22;137;48.578;9.180;2022-09-30T06:26:40;10.60;98.20
306;DHT22;137;48.578;9.180;2022-09-30T06:29:07;10.50;98.20
306;DHT22;137;48.578;9.180;2022-09-30T06:31:34;10.50;98.20
306;DHT22;137;48.578;9.180;2022-09-30T06:34:01;10.50;98.20
306;DHT22;137;48.578;9.180;2022-09-30T06:36:29;10.40;98.20
306;DHT22;137;48.578;9.180;2022-09-30T06:38:58;10.50;98.20
306;DHT22;137;48.578;9.180;2022-09-30T06:41:25;10.70;98.20
306;DHT22;137;48.578;9.180;2022-09-30T06:43:54;10.90;98.20
306;DHT22;137;48.578;9.180;2022-09-30T06:46:21;11.00;98.20
306;DHT22;137;48.578;9.180;2022-09-30T06:48:48;11.00;98.20
306;DHT22;137;48.578;9.180;2022-09-30T06:51:17;10.90;98.20
306;DHT22;137;48.578;9.180;2022-09-30T06:53:44;10.90;98.20
306;DHT22;137;48.578;9.180;2022-09-30T06:56:11;10.90;98.20
306;DHT22;137;48.578;9.180;2022-09-30T06:58:39;11.00;98.20
306;DHT22;137;48.578;9.180;2022-09-30T07:01:11;10.90;98.20
306;DHT22;137;48.578;9.180;2022-09-30T07:03:40;11.00;98.20
306;DHT22;137;48.578;9.180;2022-09-30T07:06:07;10.90;98.20
306;DHT22;137;48.578;9.180;2022-09-30T07:08:35;10.90;98.20
306;DHT22;137;48.578;9.180;2022-09-30T07:11:06;10.90;98.20
306;DHT22;137;48.578;9.180;2022-09-30T07:13:36;10.90;98.20
306;DHT22;137;48.578;9.180;2022-09-30T07:16:04;11.00;98.20
306;DHT22;137;48.578;9.180;2022-09-30T07:18:33;11.10;98.20
306;DHT22;137;48.578;9.180;2022-09-30T07:20:59;11.10;98.20
306;DHT22;137;48.578;9.180;2022-09-30T07:23:26;11.30;98.20
306;DHT22;137;48.578;9.180;2022-09-30T07:25:55;11.50;98.20
306;DHT22;137;48.578;9.180;2022-09-30T07:28:23;11.70;98.20
306;DHT22;137;48.578;9.180;2022-09-30T07:30:52;11.90;98.20
306;DHT22;137;48.578;9.180;2022-09-30T07:33:20;12.00;98.20
306;DHT22;137;48.578;9.180;2022-09-30T07:35:53;12.30;98.20
306;DHT22;137;48.578;9.180;2022-09-30T07:38:21;12.40;98.20
306;DHT22;137;48.578;9.180;2022-09-30T07:40:58;12.50;98.20
306;DHT22;137;48.578;9.180;2022-09-30T07:43:26;12.40;98.20
306;DHT22;137;48.578;9.180;2022-09-30T07:46:02;12.40;98.20
306;DHT22;137;48.578;9.180;2022-09-30T07:48:29;12.60;98.20
306;DHT22;137;48.578;9.180;2022-09-30T07:51:11;12.70;98.20
306;DHT22;137;48.578;9.180;2022-09-30T07:53:41;12.80;98.20
306;DHT22;137;48.578;9.180;2022-09-30T07:56:09;12.80;98.20
306;DHT22;137;48.578;9.180;2022-09-30T07:58:36;12.80;98.20
306;DHT22;137;48.578;9.180;2022-09-30T08:01:04;12.60;98.20
306;DHT22;137;48.578;9.180;2022-09-30T08:03:31;12.80;98.20
306;DHT22;137;48.578;9.180;2022-09-30T08:06:03;12.60;98.20
306;DHT22;137;48.578;9.180;2022-09-30T08:08:32;12.70;98.20
306;DHT22;137;48.578;9.180;2022-09-30T08:10:59;12.90;98.20
306;DHT22;137;48.578;9.180;2022-09-30T08:13:26;13.10;98.20
306;DHT22;137;48.578;9.180;2022-09-30T08:15:53;13.20;98.20
306;DHT22;137;48.578;9.180;2022-09-30T08:18:20;13.30;98.20
306;DHT22;137;48.578;9.180;2022-09-30T08:20:47;13.20;98.20
306;DHT22;137;48.578;9.180;2022-09-30T08:23:14;13.30;98.20
306;DHT22;137;48.578;9.180;2022-09-30T08:25:42;13.30;98.20
306;DHT22;137;48.578;9.180;2022-09-30T08:28:09;13.30;98.20
306;DHT22;137;48.578;9.180;2022-09-30T08:30:36;13.30;98.20
306;DHT22;137;48.578;9.180;2022-09-30T08:33:04;13.30;98.20
306;DHT22;137;48.578;9.180;2022-09-30T08:35:31;13.20;98.20
306;DHT22;137;48.578;9.180;2022-09-30T08:38:00;13.20;98.20
306;DHT22;137;48.578;9.180;2022-09-30T08:40:31;13.20;98.20
306;DHT22;137;48.578;9.180;2022-09-30T08:43:20;13.30;98.20
306;DHT22;137;48.578;9.180;2022-09-30T08:45:57;13.40;98.20
306;DHT22;137;48.578;9.180;2022-09-30T08:48:36;13.40;98.20
306;DHT22;137;48.578;9.180;2022-09-30T08:51:16;13.30;98.20
306;DHT22;137;48.578;9.180;2022-09-30T08:53:50;13.30;98.20
306;DHT22;137;48.578;9.180;2022-09-30T08:56:20;13.30;98.20
306;DHT22;137;48.578;9.180;2022-09-30T08:58:52;13.40;98.20
306;DHT22;137;48.578;9.180;2022-09-30T09:01:27;13.50;98.20
306;DHT22;137;48.578;9.180;2022-09-30T09:03:56;13.80;98.20
306;DHT22;137;48.578;9.180;2022-09-30T09:06:27;14.00;98.20
306;DHT22;137;48.578;9.180;2022-09-30T09:09:22;14.10;98.20
306;DHT22;137;48.578;9.180;2022-09-30T09:12:14;14.40;98.20
306;DHT22;137;48.578;9.180;2022-09-30T09:14:57;14.80;98.20
306;DHT22;137;48.578;9.180;2022-09-30T09:17:33;15.40;98.20
306;DHT22;137;48.578;9.180;2022-09-30T09:20:11;15.60;98.20
306;DHT22;137;48.578;9.180;2022-09-30T09:22:39;15.60;98.20
306;DHT22;137;48.578;9.180;2022-09-30T09:25:11;15.80;98.20
306;DHT22;137;48.578;9.180;2022-09-30T09:27:45;15.40;98.20
306;DHT22;137;48.578;9.180;2022-09-30T09:30:19;15.60;98.20
306;DHT22;137;48.578;9.180;2022-09-30T09:32:50;15.80;98.20
306;DHT22;137;48.578;9.180;2022-09-30T09:35:28;15.90;98.20
306;DHT22;137;48.578;9.180;2022-09-30T09:38:04;15.60;98.20
306;DHT22;137;48.578;9.180;2022-09-30T09:41:15;15.20;98.20
306;DHT22;137;48.578;9.180;2022-09-30T09:43:58;14.90;98.20
306;DHT22;137;48.578;9.180;2022-09-30T09:46:30;15.00;98.20
306;DHT22;137;48.578;9.180;2022-09-30T09:49:27;15.00;98.20
306;DHT22;137;48.578;9.180;2022-09-30T09:52:20;15.00;98.20
306;DHT22;137;48.578;9.180;2022-09-30T09:54:51;15.30;98.20
306;DHT22;137;48.578;9.180;2022-09-30T09:57:22;15.30;98.20
306;DHT22;137;48.578;9.180;2022-09-30T09:59:55;15.50;98.20
306;DHT22;137;48.578;9.180;2022-09-30T10:02:25;16.20;98.20
306;DHT22;137;48.578;9.180;2022-09-30T10:04:52;16.30;98.20
306;DHT22;137;48.578;9.180;2022-09-30T10:07:25;16.10;98.20
306;DHT22;137;48.578;9.180;2022-09-30T10:10:10;16.30;98.20
306;DHT22;137;48.578;9.180;2022-09-30T10:12:42;16.90;98.20
306;DHT22;137;48.578;9.180;2022-09-30T10:15:19;17.00;98.20
306;DHT22;137;48.578;9.180;2022-09-30T10:17:52;17.40;98.20
306;DHT22;137;48.578;9.180;2022-09-30T10:20:26;17.60;98.20
306;DHT22;137;48.578;9.180;2022-09-30T10:23:00;17.80;98.20
306;DHT22;137;48.578;9.180;2022-09-30T10:25:28;17.90;98.20
306;DHT22;137;48.578;9.180;2022-09-30T10:27:57;17.70;98.20
306;DHT22;137;48.578;9.180;2022-09-30T10:30:40;17.40;98.20
306;DHT22;137;48.578;9.180;2022-09-30T10:33:20;17.10;98.20
306;DHT22;137;48.578;9.180;2022-09-30T10:35:58;17.30;98.20
306;DHT22;137;48.578;9.180;2022-09-30T10:38:26;17.60;98.20
306;DHT22;137;48.578;9.180;2022-09-30T10:40:54;17.50;98.20
306;DHT22;137;48.578;9.180;2022-09-30T10:43:25;17.40;98.20
306;DHT22;137;48.578;9.180;2022-09-30T10:45:52;17.10;98.20
306;DHT22;137;48.578;9.180;2022-09-30T10:48:23;16.90;98.20
306;DHT22;137;48.578;9.180;2022-09-30T10:50:50;16.60;98.20
306;DHT22;137;48.578;9.180;2022-09-30T10:53:21;16.40;98.20
306;DHT22;137;48.578;9.180;2022-09-30T10:55:49;16.40;98.20
306;DHT22;137;48.578;9.180;2022-09-30T10:58:29;16.50;98.20
306;DHT22;137;48.578;9.180;2022-09-30T11:01:03;16.70;98.20
306;DHT22;137;48.578;9.180;2022-09-30T11:03:38;16.80;98.20
306;DHT22;137;48.578;9.180;2022-09-30T11:06:06;16.90;98.20
306;DHT22;137;48.578;9.180;2022-09-30T11:08:42;17.00;98.20
306;DHT22;137;48.578;9.180;2022-09-30T11:11:13;16.80;98.20
306;DHT22;137;48.578;9.180;2022-09-30T11:13:43;16.80;98.20
306;DHT22;137;48.578;9.180;2022-09-30T11:16:18;16.70;98.20
306;DHT22;137;48.578;9.180;2022-09-30T11:18:52;16.90;98.20
306;DHT22;137;48.578;9.180;2022-09-30T11:21:24;16.80;98.20
306;DHT22;137;48.578;9.180;2022-09-30T11:23:58;17.10;98.20
306;DHT22;137;48.578;9.180;2022-09-30T11:26:33;17.60;98.20
306;DHT22;137;48.578;9.180;2022-09-30T11:29:13;17.70;98.20
306;DHT22;137;48.578;9.180;2022-09-30T11:31:49;17.80;98.20
306;DHT22;137;48.578;9.180;2022-09-30T11:34:30;18.00;98.20
306;DHT22;137;48.578;9.180;2022-09-30T11:37:06;17.90;98.20
306;DHT22;137;48.578;9.180;2022-09-30T11:42:49;17.80;98.20
306;DHT22;137;48.578;9.180;2022-09-30T11:45:26;17.80;98.20
306;DHT22;137;48.578;9.180;2022-09-30T11:48:08;17.70;98.20
306;DHT22;137;48.578;9.180;2022-09-30T11:50:49;17.70;98.20
306;DHT22;137;48.578;9.180;2022-09-30T11:53:24;17.40;98.20
306;DHT22;137;48.578;9.180;2022-09-30T11:56:05;17.70;98.20
306;DHT22;137;48.578;9.180;2022-09-30T11:58:37;17.60;98.20
306;DHT22;137;48.578;9.180;2022-09-30T12:01:15;17.50;98.20
306;DHT22;137;48.578;9.180;2022-09-30T12:03:52;17.30;98.20
306;DHT22;137;48.578;9.180;2022-09-30T12:06:27;17.30;98.20
306;DHT22;137;48.578;9.180;2022-09-30T12:09:00;17.30;98.20
306;DHT22;137;48.578;9.180;2022-09-30T12:11:34;17.40;98.20
306;DHT22;137;48.578;9.180;2022-09-30T12:14:05;17.60;98.20
306;DHT22;137;48.578;9.180;2022-09-30T12:16:36;17.70;98.20
306;DHT22;137;48.578;9.180;2022-09-30T12:19:12;17.50;98.20
306;DHT22;137;48.578;9.180;2022-09-30T12:21:48;17.70;98.20
306;DHT22;137;48.578;9.180;2022-09-30T12:24:22;17.80;98.20
306;DHT22;137;48.578;9.180;2022-09-30T12:26:50;18.00;98.20
306;DHT22;137;48.578;9.180;2022-09-30T12:29:20;18.20;98.20
306;DHT22;137;48.578;9.180;2022-09-30T12:32:40;18.10;98.20
306;DHT22;137;48.578;9.180;2022-09-30T12:38:31;17.90;98.20
306;DHT22;137;48.578;9.180;2022-09-30T12:41:14;18.10;98.20
306;DHT22;137;48.578;9.180;2022-09-30T12:47:21;17.80;98.20
306;DHT22;137;48.578;9.180;2022-09-30T12:49:54;17.90;98.20
306;DHT22;137;48.578;9.180;2022-09-30T12:52:23;18.00;98.20
306;DHT22;137;48.578;9.180;2022-09-30T12:54:55;18.20;98.20
306;DHT22;137;48.578;9.180;2022-09-30T12:57:24;18.30;98.20
306;DHT22;137;48.578;9.180;2022-09-30T12:59:53;18.50;98.20
306;DHT22;137;48.578;9.180;2022-09-30T13:02:30;18.50;98.20
306;DHT22;137;48.578;9.180;2022-09-30T13:08:15;18.10;98.20
306;DHT22;137;48.578;9.180;2022-09-30T13:10:56;17.80;98.20
306;DHT22;137;48.578;9.180;2022-09-30T13:13:24;17.50;98.20
306;DHT22;137;48.578;9.180;2022-09-30T13:15:52;17.10;98.20
306;DHT22;137;48.578;9.180;2022-09-30T13:18:58;16.70;98.20
306;DHT22;137;48.578;9.180;2022-09-30T13:21:25;16.50;98.20
306;DHT22;137;48.578;9.180;2022-09-30T13:23:53;16.50;98.20
306;DHT22;137;48.578;9.180;2022-09-30T13:26:44;16.40;98.20
306;DHT22;137;48.578;9.180;2022-09-30T13:29:36;16.40;98.20
306;DHT22;137;48.578;9.180;2022-09-30T13:32:05;16.60;98.20
306;DHT22;137;48.578;9.180;2022-09-30T13:34:48;16.70;98.20
306;DHT22;137;48.578;9.180;2022-09-30T13:37:38;16.60;98.20
306;DHT22;137;48.578;9.180;2022-09-30T13:40:20;16.80;98.20
306;DHT22;137;48.578;9.180;2022-09-30T13:42:52;17.00;98.20
306;DHT22;137;48.578;9.180;2022-09-30T13:45:28;17.50;98.20
306;DHT22;137;48.578;9.180;2022-09-30T13:48:04;18.20;98.20
306;DHT22;137;48.578;9.180;2022-09-30T13:50:37;18.40;98.20
306;DHT22;137;48.578;9.180;2022-09-30T13:53:13;18.50;98.20
306;DHT22;137;48.578;9.180;2022-09-30T13:55:42;18.70;98.20
306;DHT22;137;48.578;9.180;2022-09-30T13:58:32;19.20;98.20
306;DHT22;137;48.578;9.180;2022-09-30T14:01:07;19.40;98.20
306;DHT22;137;48.578;9.180;2022-09-30T14:03:55;19.50;98.20
306;DHT22;137;48.578;9.180;2022-09-30T14:06:34;18.70;98.20
306;DHT22;137;48.578;9.180;2022-09-30T14:09:18;18.20;98.20
306;DHT22;137;48.578;9.180;2022-09-30T14:12:05;18.30;98.20
306;DHT22;137;48.578;9.180;2022-09-30T14:14:53;18.60;98.20
306;DHT22;137;48.578;9.180;2022-09-30T14:17:39;19.00;98.20
306;DHT22;137;48.578;9.180;2022-09-30T14:23:11;18.90;98.20
306;DHT22;137;48.578;9.180;2022-09-30T14:25:43;18.50;98.20
306;DHT22;137;48.578;9.180;2022-09-30T14:28:12;18.80;98.20
306;DHT22;137;48.578;9.180;2022-09-30T14:30:43;18.90;98.20
306;DHT22;137;48.578;9.180;2022-09-30T14:33:30;19.10;98.20
306;DHT22;137;48.578;9.180;2022-09-30T14:35:59;19.00;98.20
306;DHT22;137;48.578;9.180;2022-09-30T14:38:28;18.80;98.20
306;DHT22;137;48.578;9.180;2022-09-30T14:40:58;18.80;98.20
306;DHT22;137;48.578;9.180;2022-09-30T14:43:31;18.90;98.20
306;DHT22;137;48.578;9.180;2022-09-30T14:46:07;18.80;98.20
306;DHT22;137;48.578;9.180;2022-09-30T14:48:39;18.90;98.20
306;DHT22;137;48.578;9.180;2022-09-30T14:51:10;18.60;98.20
306;DHT22;137;48.578;9.180;2022-09-30T14:53:40;18.40;98.20
306;DHT22;137;48.578;9.180;2022-09-30T14:56:18;18.00;98.20
306;DHT22;137;48.578;9.180;2022-09-30T14:58:47;17.80;98.20
306;DHT22;137;48.578;9.180;2022-09-30T15:01:19;17.50;98.20
306;DHT22;137;48.578;9.180;2022-09-30T15:03:50;17.40;98.20
306;DHT22;137;48.578;9.180;2022-09-30T15:06:22;17.50;98.20
306;DHT22;137;48.578;9.180;2022-09-30T15:08:52;17.40;98.20
306;DHT22;137;48.578;9.180;2022-09-30T15:11:25;17.40;98.20
306;DHT22;137;48.578;9.180;2022-09-30T15:13:58;17.30;98.20
306;DHT22;137;48.578;9.180;2022-09-30T15:16:28;17.60;98.20
306;DHT22;137;48.578;9.180;2022-09-30T15:18:56;17.60;98.20
306;DHT22;137;48.578;9.180;2022-09-30T15:21:25;17.60;98.20
306;DHT22;137;48.578;9.180;2022-09-30T15:23:55;17.40;98.20
306;DHT22;137;48.578;9.180;2022-09-30T15:26:23;17.50;98.20
306;DHT22;137;48.578;9.180;2022-09-30T15:28:51;17.80;98.20
306;DHT22;137;48.578;9.180;2022-09-30T15:31:22;17.60;98.20
306;DHT22;137;48.578;9.180;2022-09-30T15:34:04;17.40;98.20
306;DHT22;137;48.578;9.180;2022-09-30T15:36:33;17.20;98.20
306;DHT22;137;48.578;9.180;2022-09-30T15:39:02;17.10;98.20
306;DHT22;137;48.578;9.180;2022-09-30T15:41:30;17.20;98.20
306;DHT22;137;48.578;9.180;2022-09-30T15:44:03;17.10;98.20
306;DHT22;137;48.578;9.180;2022-09-30T15:46:38;16.70;98.20
306;DHT22;137;48.578;9.180;2022-09-30T15:49:31;16.60;98.20
306;DHT22;137;48.578;9.180;2022-09-30T15:52:25;16.50;98.20
306;DHT22;137;48.578;9.180;2022-09-30T15:54:54;16.40;98.20
306;DHT22;137;48.578;9.180;2022-09-30T15:57:43;16.30;98.20
306;DHT22;137;48.578;9.180;2022-09-30T16:00:31;16.30;98.20
306;DHT22;137;48.578;9.180;2022-09-30T16:03:25;16.20;98.20
306;DHT22;137;48.578;9.180;2022-09-30T16:06:04;16.10;98.20
306;DHT22;137;48.578;9.180;2022-09-30T16:08:38;16.10;98.20
306;DHT22;137;48.578;9.180;2022-09-30T16:11:06;16.10;98.20
306;DHT22;137;48.578;9.180;2022-09-30T16:13:35;16.10;98.20
306;DHT22;137;48.578;9.180;2022-09-30T16:16:17;16.00;98.20
306;DHT22;137;48.578;9.180;2022-09-30T16:18:46;15.90;98.20
306;DHT22;137;48.578;9.180;2022-09-30T16:21:29;15.90;98.20
306;DHT22;137;48.578;9.180;2022-09-30T16:27:00;15.80;98.20
306;DHT22;137;48.578;9.180;2022-09-30T16:29:41;15.70;98.20
306;DHT22;137;48.578;9.180;2022-09-30T16:32:08;15.50;98.20
306;DHT22;137;48.578;9.180;2022-09-30T16:34:37;15.40;98.20
306;DHT22;137;48.578;9.180;2022-09-30T16:37:11;15.30;98.20
306;DHT22;137;48.578;9.180;2022-09-30T16:39:38;15.20;98.20
306;DHT22;137;48.578;9.180;2022-09-30T16:42:05;15.20;98.20
306;DHT22;137;48.578;9.180;2022-09-30T16:44:32;15.10;98.20
306;DHT22;137;48.578;9.180;2022-09-30T16:46:59;15.00;98.20
306;DHT22;137;48.578;9.180;2022-09-30T16:49:27;15.00;98.20
306;DHT22;137;48.578;9.180;2022-09-30T16:51:53;14.90;98.20
306;DHT22;137;48.578;9.180;2022-09-30T16:54:22;14.80;98.20
306;DHT22;137;48.578;9.180;2022-09-30T16:56:48;14.70;98.20
306;DHT22;137;48.578;9.180;2022-09-30T16:59:16;14.60;98.20
306;DHT22;137;48.578;9.180;2022-09-30T17:01:43;14.50;98.20
306;DHT22;137;48.578;9.180;2022-09-30T17:04:10;14.30;98.20
306;DHT22;137;48.578;9.180;2022-09-30T17:06:37;14.20;98.20
306;DHT22;137;48.578;9.180;2022-09-30T17:09:04;14.20;98.20
306;DHT22;137;48.578;9.180;2022-09-30T17:11:34;14.10;98.20
306;DHT22;137;48.578;9.180;2022-09-30T17:14:03;13.90;98.20
306;DHT22;137;48.578;9.180;2022-09-30T17:16:32;13.80;98.20
306;DHT22;137;48.578;9.180;2022-09-30T17:19:00;13.70;98.20
306;DHT22;137;48.578;9.180;2022-09-30T17:21:27;13.60;98.20
306;DHT22;137;48.578;9.180;2022-09-30T17:23:54;13.40;98.20
306;DHT22;137;48.578;9.180;2022-09-30T17:26:22;13.20;98.20
306;DHT22;137;48.578;9.180;2022-09-30T17:28:50;13.10;98.20
306;DHT22;137;48.578;9.180;2022-09-30T17:31:17;13.00;98.20
306;DHT22;137;48.578;9.180;2022-09-30T17:33:44;12.90;98.20
306;DHT22;137;48.578;9.180;2022-09-30T17:36:11;12.80;98.20
306;DHT22;137;48.578;9.180;2022-09-30T17:38:39;12.70;98.20